»·PEaware :: N575TV KSAN-KSBP

N575TV :: KSAN-KSBP

FLIGHT INFORMATION

Flight Status: Arrived
Operator: Privately registered:
United States
More flights under this callsign
Pilot: Anonymous 16342 (16342)
Aircraft: DASSAULT AVIATION FALCON 50
(FA50)
More flights by this aircraft type
Origin: KSAN San Diego Intl-Lindbergh
United States
Destination: KSBP San Luis Co Regl
United States
More flights between these airports :: More routes between these airports
Route: PADRZ2 IKAYE RZS MQO
File this flight plan on PilotEdge
Remarks:
Altitude:
(Current/Filed)
28,000ft
Speed:
(Current/Filed)
338kts
Departed: 10-Feb-20 08:54 AM
Arrived: 10-Feb-20 09:40 AM
Distance/Time
Traveled:
228nm/0:46
Distance/Time
To Go:
Arrived

Flight Plot

Page will automatically refresh every two minutes.

Flight plan parsing failed; only flown route is shown


Map Options




Map Legend


Flown Route
Filed Route
Departure Airport
Arrival Airport
Navaid (VOR, NDB)
Fix

Horizontal Profiles

Position Reports

Time Latitude Longitude Heading Altitude Ground
Speed
10-Feb-20 08:37 32.734502 -117.179240 18 18ft 0kts
10-Feb-20 08:38 32.734502 -117.179240 18 18ft 0kts
10-Feb-20 08:39 32.734502 -117.179240 18 18ft 0kts
10-Feb-20 08:40 32.734502 -117.179240 18 18ft 0kts
10-Feb-20 08:41 32.734502 -117.179240 18 18ft 0kts
10-Feb-20 08:42 32.734502 -117.179240 18 18ft 0kts
10-Feb-20 08:43 32.734502 -117.179240 18 18ft 0kts
10-Feb-20 08:44 32.734502 -117.179240 18 18ft 0kts
10-Feb-20 08:45 32.734502 -117.179240 18 18ft 0kts
10-Feb-20 08:46 32.734502 -117.179240 18 18ft 0kts
10-Feb-20 08:47 32.734502 -117.179240 18 18ft 0kts
10-Feb-20 08:48 32.734502 -117.179240 18 18ft 0kts
10-Feb-20 08:49 32.734502 -117.179240 18 18ft 0kts
10-Feb-20 08:50 32.734379 -117.179329 77 18ft 1kts
10-Feb-20 08:51 32.732790 -117.178544 114 18ft 12kts
10-Feb-20 08:52 32.731411 -117.176065 110 18ft 4kts
10-Feb-20 08:53 32.730808 -117.178255 286 18ft 62kts
10-Feb-20 08:54 32.743863 -117.219046 306 2057ft 142kts
10-Feb-20 08:55 32.771639 -117.267424 306 4893ft 189kts
10-Feb-20 08:56 32.800959 -117.321467 308 8499ft 201kts
10-Feb-20 08:57 32.837872 -117.377979 312 11049ft 251kts
10-Feb-20 08:58 32.888531 -117.456330 310 12787ft 345kts
10-Feb-20 08:59 32.948520 -117.549781 311 16301ft 362kts
10-Feb-20 09:00 33.010145 -117.645962 310 19190ft 378kts
10-Feb-20 09:01 33.077952 -117.743788 320 21712ft 386kts
10-Feb-20 09:02 33.161027 -117.828536 322 23823ft 397kts
10-Feb-20 09:03 33.242828 -117.918745 317 25668ft 408kts
10-Feb-20 09:04 33.323354 -118.016312 319 27285ft 414kts
10-Feb-20 09:05 33.406593 -118.116055 319 27940ft 438kts
10-Feb-20 09:06 33.495630 -118.222977 319 27927ft 466kts
10-Feb-20 09:07 33.576109 -118.319922 319 27932ft 471kts
10-Feb-20 09:08 33.667494 -118.430319 319 27923ft 462kts
10-Feb-20 09:09 33.748265 -118.528160 319 27919ft 456kts
10-Feb-20 09:10 33.836968 -118.635924 319 27916ft 452kts
10-Feb-20 09:11 33.917077 -118.733544 319 27917ft 448kts
10-Feb-20 09:12 33.993914 -118.827441 320 27926ft 446kts
10-Feb-20 09:13 34.068621 -118.918990 321 27940ft 443kts
10-Feb-20 09:14 34.134571 -119.003204 316 27949ft 446kts
10-Feb-20 09:15 34.201898 -119.131514 308 27957ft 452kts
10-Feb-20 09:16 34.264306 -119.260536 308 26495ft 433kts
10-Feb-20 09:17 34.323701 -119.383559 308 24417ft 416kts
10-Feb-20 09:18 34.381462 -119.503539 308 23623ft 414kts
10-Feb-20 09:19 34.432938 -119.611034 308 21853ft 395kts
10-Feb-20 09:20 34.485029 -119.720093 308 19834ft 358kts
10-Feb-20 09:21 34.535899 -119.805637 321 18017ft 331kts
10-Feb-20 09:22 34.597782 -119.887079 319 16016ft 324kts
10-Feb-20 09:23 34.658501 -119.967140 318 14026ft 321kts
10-Feb-20 09:24 34.703424 -120.026503 317 12815ft 311kts
10-Feb-20 09:25 34.756242 -120.096369 316 11358ft 304kts
10-Feb-20 09:26 34.812283 -120.164445 322 9737ft 268kts
10-Feb-20 09:27 34.865900 -120.223169 321 8137ft 253kts
10-Feb-20 09:28 34.908952 -120.271273 320 7076ft 232kts
10-Feb-20 09:29 34.951214 -120.318787 320 6540ft 198kts
10-Feb-20 09:30 34.993526 -120.366448 320 5157ft 209kts
10-Feb-20 09:31 35.034728 -120.412985 320 4180ft 200kts
10-Feb-20 09:32 35.071114 -120.454194 320 3981ft 146kts
10-Feb-20 09:33 35.102989 -120.477760 331 3980ft 145kts
10-Feb-20 09:34 35.143442 -120.495674 346 3247ft 151kts
10-Feb-20 09:35 35.172551 -120.527299 307 2393ft 134kts
10-Feb-20 09:36 35.193155 -120.563948 304 1763ft 130kts
10-Feb-20 09:37 35.215598 -120.603166 302 1110ft 145kts
10-Feb-20 09:38 35.234717 -120.636395 300 224ft 99kts
10-Feb-20 09:39 35.240220 -120.644869 35 215ft 4kts
10-Feb-20 09:40 35.239844 -120.643524 124 215ft 8kts
10-Feb-20 09:41 35.239074 -120.641692 101 215ft 0kts

Navigation Log

Ident Type
Flight plan parsing failed, navigation log unavailable